Time;durP1;ratioP1;P1;durP2;ratioP2;P2;SDS_P1;SDS_P2;PMS_P1;PMS_P2;Temp;Humidity;BMP_temperature;BMP_pressure;BME280_temperature;BME280_humidity;BME280_pressure;Samples;Min_cycle;Max_cycle;Signal;HPM_P1;HPM_P2
2022/06/11 00:01:40;;;;;;;6.80;2.65;;;;;;;;;;4984474;28;20054;-66
2022/06/11 00:04:15;;;;;;;9.80;4.22;;;;;;;;;;5012875;28;20065;-66
2022/06/11 00:06:51;;;;;;;11.05;4.53;;;;;;;;;;5012654;28;20045;-66
2022/06/11 00:09:22;;;;;;;10.05;3.67;;;;;;;;;;5012903;28;20061;-66
2022/06/11 00:11:54;;;;;;;7.70;3.33;;;;;;;;;;5012833;28;20057;-66
2022/06/11 00:14:27;;;;;;;5.75;2.13;;;;;;;;;;5050926;28;20053;-67
2022/06/11 00:16:59;;;;;;;8.80;4.25;;;;;;;;;;4998516;28;20548;-65
2022/06/11 00:19:30;;;;;;;8.00;3.25;;;;;;;;;;5051439;28;20048;-65
2022/06/11 00:22:02;;;;;;;12.13;3.40;;;;;;;;;;5071777;28;20048;-65
2022/06/11 00:24:34;;;;;;;7.25;3.03;;;;;;;;;;5054563;28;20056;-66
2022/06/11 00:27:06;;;;;;;9.00;3.42;;;;;;;;;;5054034;28;20496;-66
2022/06/11 00:29:38;;;;;;;8.27;3.08;;;;;;;;;;5022096;28;20057;-65
2022/06/11 00:32:11;;;;;;;;;;;;;;;;;;5021761;28;20053;-65
2022/06/11 00:34:43;;;;;;;10.10;4.55;;;;;;;;;;4996614;28;19925;-65
2022/06/11 00:37:15;;;;;;;;;;;;;;;;;;5013379;28;20060;-66
2022/06/11 00:39:45;;;;;;;7.60;3.30;;;;;;;;;;5032248;28;19936;-66
2022/06/11 00:42:21;;;;;;;8.02;3.70;;;;;;;;;;5031807;28;20069;-65
2022/06/11 00:45:28;;;;;;;11.20;4.18;;;;;;;;;;5031624;28;20725;-66
2022/06/11 00:48:15;;;;;;;8.57;3.22;;;;;;;;;;4975801;28;20051;-66
2022/06/11 00:51:19;;;;;;;7.10;3.00;;;;;;;;;;4992205;28;20070;-67
2022/06/11 00:53:58;;;;;;;5.90;2.72;;;;;;;;;;4995705;28;20052;-67
2022/06/11 00:56:34;;;;;;;;;;;;;;;;;;4979421;28;20049;-67
2022/06/11 00:59:11;;;;;;;5.40;2.55;;;;;;;;;;5011831;28;19928;-66
2022/06/11 01:01:41;;;;;;;9.98;2.72;;;;;;;;;;5011866;28;20061;-66
2022/06/11 01:04:35;;;;;;;5.88;2.70;;;;;;;;;;5011709;28;20049;-67
2022/06/11 01:07:34;;;;;;;8.15;3.00;;;;;;;;;;5029060;28;20061;-66
2022/06/11 01:10:36;;;;;;;7.60;2.90;;;;;;;;;;5050762;28;20065;-66
2022/06/11 01:13:12;;;;;;;8.60;2.88;;;;;;;;;;5056455;28;20053;-66
2022/06/11 01:16:03;;;;;;;7.22;2.83;;;;;;;;;;5058021;28;20055;-67
2022/06/11 01:18:43;;;;;;;6.25;2.92;;;;;;;;;;5029051;28;20045;-67
2022/06/11 01:21:19;;;;;;;10.02;3.65;;;;;;;;;;5031002;28;20045;-66
2022/06/11 01:24:18;;;;;;;7.32;3.30;;;;;;;;;;5062929;28;20490;-66
2022/06/11 01:27:31;;;;;;;7.35;2.70;;;;;;;;;;5036555;28;20063;-67
2022/06/11 01:30:07;;;;;;;8.82;3.03;;;;;;;;;;5049691;28;20060;-67
2022/06/11 01:32:48;;;;;;;11.45;3.95;;;;;;;;;;5050444;28;20617;-66
2022/06/11 01:35:47;;;;;;;9.60;3.22;;;;;;;;;;5001319;28;20064;-66
2022/06/11 01:38:35;;;;;;;10.20;3.67;;;;;;;;;;5050860;28;20056;-66
2022/06/11 01:41:24;;;;;;;7.55;2.38;;;;;;;;;;5018168;28;20187;-66
2022/06/11 01:44:01;;;;;;;12.00;4.88;;;;;;;;;;5050684;28;20121;-66
2022/06/11 01:46:44;;;;;;;10.38;3.47;;;;;;;;;;5017352;28;20045;-66
2022/06/11 01:49:26;;;;;;;10.23;3.28;;;;;;;;;;5050568;28;20067;-67
2022/06/11 01:52:17;;;;;;;9.20;3.50;;;;;;;;;;5050609;28;20056;-66
2022/06/11 01:55:21;;;;;;;6.82;2.42;;;;;;;;;;5014032;28;20049;-67
2022/06/11 01:58:31;;;;;;;13.55;3.97;;;;;;;;;;5014189;28;20058;-66
2022/06/11 02:01:26;;;;;;;10.13;3.30;;;;;;;;;;5030179;28;20045;-66
2022/06/11 02:04:31;;;;;;;7.75;2.95;;;;;;;;;;5029705;28;20056;-66
2022/06/11 02:07:43;;;;;;;8.85;3.35;;;;;;;;;;4960866;28;20415;-67
2022/06/11 02:10:19;;;;;;;9.07;3.28;;;;;;;;;;4990933;28;20081;-66
2022/06/11 02:13:00;;;;;;;12.13;3.67;;;;;;;;;;4986398;28;20812;-66
2022/06/11 02:15:47;;;;;;;10.43;3.92;;;;;;;;;;4947813;28;20051;-68
2022/06/11 02:18:21;;;;;;;9.25;3.58;;;;;;;;;;4936763;28;20541;-66
2022/06/11 02:21:00;;;;;;;10.23;3.60;;;;;;;;;;4970500;28;20043;-67
2022/06/11 02:23:45;;;;;;;12.40;3.38;;;;;;;;;;4989730;28;20054;-66
2022/06/11 02:26:27;;;;;;;10.82;3.67;;;;;;;;;;4990417;28;20058;-66
2022/06/11 02:28:59;;;;;;;11.20;5.28;;;;;;;;;;4990554;28;20050;-66
2022/06/11 02:31:34;;;;;;;10.63;3.55;;;;;;;;;;4943842;28;20050;-66
2022/06/11 02:34:07;;;;;;;9.30;3.60;;;;;;;;;;5009826;28;20097;-66
2022/06/11 02:36:49;;;;;;;;;;;;;;;;;;5007937;28;20105;-67
2022/06/11 02:39:20;;;;;;;12.25;3.85;;;;;;;;;;4993656;28;19937;-66
2022/06/11 02:41:51;;;;;;;9.30;3.72;;;;;;;;;;5010079;28;20485;-66
2022/06/11 02:44:22;;;;;;;10.90;3.45;;;;;;;;;;4972981;28;20051;-66
2022/06/11 02:46:53;;;;;;;10.30;4.22;;;;;;;;;;4986263;28;20058;-66
2022/06/11 02:49:31;;;;;;;9.52;3.55;;;;;;;;;;4970572;28;20051;-67
2022/06/11 02:52:06;;;;;;;10.38;3.65;;;;;;;;;;4970522;28;20418;-66
2022/06/11 02:54:38;;;;;;;9.07;3.15;;;;;;;;;;4970734;28;20054;-67
2022/06/11 02:57:11;;;;;;;9.82;4.03;;;;;;;;;;4970188;28;20043;-67
2022/06/11 02:59:44;;;;;;;9.57;3.15;;;;;;;;;;4932045;29;20056;-66
2022/06/11 03:02:15;;;;;;;8.73;3.78;;;;;;;;;;4968186;28;20494;-67
2022/06/11 03:04:46;;;;;;;10.95;3.75;;;;;;;;;;4970687;28;20506;-66
2022/06/11 03:07:17;;;;;;;11.10;3.88;;;;;;;;;;4935243;29;20050;-67
2022/06/11 03:09:48;;;;;;;10.57;3.10;;;;;;;;;;4965839;28;20418;-66
2022/06/11 03:12:18;;;;;;;11.80;3.63;;;;;;;;;;4970572;28;20058;-66
2022/06/11 03:14:48;;;;;;;9.95;3.95;;;;;;;;;;4937091;28;20043;-67
2022/06/11 03:17:20;;;;;;;9.45;4.00;;;;;;;;;;4954575;28;20059;-66
2022/06/11 03:19:50;;;;;;;10.75;3.63;;;;;;;;;;4938034;28;20055;-66
2022/06/11 03:22:21;;;;;;;9.93;3.83;;;;;;;;;;4980596;28;20455;-66
2022/06/11 03:24:52;;;;;;;8.20;3.65;;;;;;;;;;4996927;28;20441;-67
2022/06/11 03:27:23;;;;;;;11.50;3.50;;;;;;;;;;4982794;28;20058;-67
2022/06/11 03:29:53;;;;;;;11.77;3.75;;;;;;;;;;4954601;28;20057;-67
2022/06/11 03:32:24;;;;;;;12.20;3.85;;;;;;;;;;4964921;28;20045;-67
2022/06/11 03:34:54;;;;;;;9.15;3.72;;;;;;;;;;4955979;28;20403;-66
2022/06/11 03:37:24;;;;;;;10.30;4.25;;;;;;;;;;5002040;28;20055;-67
2022/06/11 03:39:55;;;;;;;9.57;3.50;;;;;;;;;;5018174;28;20053;-67
2022/06/11 03:42:26;;;;;;;12.10;4.00;;;;;;;;;;5013848;28;20081;-67
2022/06/11 03:44:59;;;;;;;12.40;3.75;;;;;;;;;;4984468;28;20054;-66
2022/06/11 03:47:29;;;;;;;11.23;3.90;;;;;;;;;;4989018;28;20065;-66
2022/06/11 03:50:00;;;;;;;11.95;4.32;;;;;;;;;;4986901;28;20047;-67
2022/06/11 03:52:31;;;;;;;10.57;3.65;;;;;;;;;;4989132;28;20612;-66
2022/06/11 03:55:01;;;;;;;8.82;3.45;;;;;;;;;;4987100;28;20046;-66
2022/06/11 03:57:34;;;;;;;8.45;3.53;;;;;;;;;;4988854;28;20050;-66
2022/06/11 04:00:08;;;;;;;9.15;3.58;;;;;;;;;;4988974;28;20038;-67
2022/06/11 04:02:40;;;;;;;10.50;3.50;;;;;;;;;;4986320;28;20050;-67
2022/06/11 04:05:10;;;;;;;10.10;3.70;;;;;;;;;;4988714;28;20075;-65
2022/06/11 04:07:41;;;;;;;8.43;3.38;;;;;;;;;;4988832;28;20046;-66
2022/06/11 04:10:11;;;;;;;19.60;3.80;;;;;;;;;;4989596;28;20065;-66
2022/06/11 04:12:41;;;;;;;10.05;3.42;;;;;;;;;;5022738;28;20057;-65
2022/06/11 04:15:13;;;;;;;9.65;3.05;;;;;;;;;;5048391;28;20156;-65
2022/06/11 04:17:44;;;;;;;11.27;3.95;;;;;;;;;;5008408;28;20050;-65
2022/06/11 04:20:15;;;;;;;10.52;3.47;;;;;;;;;;4976096;28;20061;-66
2022/06/11 04:22:45;;;;;;;9.93;3.55;;;;;;;;;;4936166;28;20125;-65
2022/06/11 04:25:18;;;;;;;9.65;3.80;;;;;;;;;;5009226;28;20062;-66
2022/06/11 04:27:53;;;;;;;10.38;3.67;;;;;;;;;;5008774;28;20057;-66
2022/06/11 04:30:25;;;;;;;8.55;3.75;;;;;;;;;;4976452;28;20056;-66
2022/06/11 04:32:55;;;;;;;10.15;3.97;;;;;;;;;;5008875;28;20073;-65
2022/06/11 04:35:26;;;;;;;8.80;3.45;;;;;;;;;;5008756;28;20062;-66
2022/06/11 04:37:56;;;;;;;13.05;4.40;;;;;;;;;;4992271;28;20065;-66
2022/06/11 04:40:27;;;;;;;11.40;3.97;;;;;;;;;;5008929;28;20057;-66
2022/06/11 04:42:57;;;;;;;11.52;3.75;;;;;;;;;;5008786;28;20065;-67
2022/06/11 04:45:28;;;;;;;10.25;3.90;;;;;;;;;;4994002;28;20421;-66
2022/06/11 04:47:58;;;;;;;9.80;3.35;;;;;;;;;;5011581;28;20061;-66
2022/06/11 04:50:28;;;;;;;10.18;3.85;;;;;;;;;;5012068;28;20112;-65
2022/06/11 04:52:58;;;;;;;9.63;3.90;;;;;;;;;;4981566;28;20053;-66
2022/06/11 04:55:29;;;;;;;13.55;4.90;;;;;;;;;;5042691;28;20437;-66
2022/06/11 04:58:00;;;;;;;9.13;3.83;;;;;;;;;;5002178;28;20061;-66
2022/06/11 05:00:32;;;;;;;11.10;4.30;;;;;;;;;;5018533;28;20060;-66
2022/06/11 05:03:03;;;;;;;10.35;3.83;;;;;;;;;;5051505;28;20041;-66
2022/06/11 05:05:34;;;;;;;11.70;3.92;;;;;;;;;;5018503;28;20057;-66
2022/06/11 05:08:04;;;;;;;8.95;3.78;;;;;;;;;;5018613;28;20045;-66
2022/06/11 05:10:35;;;;;;;11.80;3.97;;;;;;;;;;5011500;28;20053;-66
2022/06/11 05:13:08;;;;;;;9.85;4.03;;;;;;;;;;5011910;28;20521;-66
2022/06/11 05:15:45;;;;;;;8.75;3.53;;;;;;;;;;5011455;28;20053;-66
2022/06/11 05:18:18;;;;;;;11.45;3.83;;;;;;;;;;5011599;28;20054;-66
2022/06/11 05:20:49;;;;;;;9.45;3.20;;;;;;;;;;4995378;28;20544;-66
2022/06/11 05:23:19;;;;;;;10.32;3.80;;;;;;;;;;4978734;28;20061;-66
2022/06/11 05:25:50;;;;;;;10.05;3.88;;;;;;;;;;5010835;28;20058;-66
2022/06/11 05:28:25;;;;;;;12.10;3.78;;;;;;;;;;5011297;28;20161;-65
2022/06/11 05:30:56;;;;;;;11.82;4.10;;;;;;;;;;4979205;28;20053;-67
2022/06/11 05:33:28;;;;;;;9.75;3.17;;;;;;;;;;5011217;28;20062;-66
2022/06/11 05:35:58;;;;;;;8.95;3.92;;;;;;;;;;5011146;28;20057;-66
2022/06/11 05:38:29;;;;;;;8.73;3.50;;;;;;;;;;4962176;28;20824;-67
2022/06/11 05:41:01;;;;;;;9.43;3.45;;;;;;;;;;5011105;28;20061;-67
2022/06/11 05:43:31;;;;;;;9.07;3.17;;;;;;;;;;5011040;28;20042;-66
2022/06/11 05:46:16;;;;;;;9.95;3.38;;;;;;;;;;4974653;28;20080;-66
2022/06/11 05:49:01;;;;;;;8.00;3.13;;;;;;;;;;5059881;28;20072;-66
2022/06/11 05:51:35;;;;;;;9.07;3.17;;;;;;;;;;5070610;28;20715;-66
2022/06/11 05:54:12;;;;;;;9.32;2.92;;;;;;;;;;5070751;28;20052;-66
2022/06/11 05:56:43;;;;;;;9.57;3.08;;;;;;;;;;5030190;28;20045;-66
2022/06/11 05:59:26;;;;;;;6.93;2.72;;;;;;;;;;5047114;28;20068;-65
2022/06/11 06:01:59;;;;;;;8.63;3.53;;;;;;;;;;5050507;28;20053;-66
2022/06/11 06:04:30;;;;;;;8.02;2.92;;;;;;;;;;5050648;28;20048;-65
2022/06/11 06:07:01;;;;;;;8.50;3.50;;;;;;;;;;5018708;28;20067;-65
2022/06/11 06:09:32;;;;;;;7.43;3.35;;;;;;;;;;5050395;28;20451;-66
2022/06/11 06:12:03;;;;;;;7.45;2.80;;;;;;;;;;5050308;28;20072;-65
2022/06/11 06:14:34;;;;;;;9.82;3.28;;;;;;;;;;5050290;28;20049;-66
2022/06/11 06:17:04;;;;;;;7.55;3.00;;;;;;;;;;5033865;28;20045;-66
2022/06/11 06:19:55;;;;;;;8.70;3.88;;;;;;;;;;5010363;28;20498;-66
2022/06/11 06:22:25;;;;;;;9.68;3.33;;;;;;;;;;4961453;28;20058;-66
2022/06/11 06:24:55;;;;;;;10.57;3.15;;;;;;;;;;5010286;28;20061;-66
2022/06/11 06:27:25;;;;;;;8.57;3.05;;;;;;;;;;4954464;28;20062;-65
2022/06/11 06:29:56;;;;;;;11.77;3.17;;;;;;;;;;4971556;28;20055;-66
2022/06/11 06:32:26;;;;;;;9.98;2.78;;;;;;;;;;4970897;28;20065;-66
2022/06/11 06:34:56;;;;;;;8.07;3.42;;;;;;;;;;5019601;28;20058;-66
2022/06/11 06:37:26;;;;;;;9.20;3.20;;;;;;;;;;5029850;28;20390;-65
2022/06/11 06:39:57;;;;;;;6.22;2.67;;;;;;;;;;5029981;28;20191;-66
2022/06/11 06:42:28;;;;;;;13.15;4.63;;;;;;;;;;5029706;28;20065;-66
2022/06/11 06:44:58;;;;;;;11.18;3.45;;;;;;;;;;5030090;28;20060;-66
2022/06/11 06:47:28;;;;;;;10.70;3.70;;;;;;;;;;5013640;28;20583;-66
2022/06/11 06:49:59;;;;;;;9.05;3.22;;;;;;;;;;4990195;28;20054;-65
2022/06/11 06:52:29;;;;;;;9.50;3.17;;;;;;;;;;4990169;28;20059;-66
2022/06/11 06:55:00;;;;;;;7.90;2.88;;;;;;;;;;4990177;28;20517;-66
2022/06/11 06:57:29;;;;;;;9.38;3.40;;;;;;;;;;5007790;28;20060;-66
2022/06/11 07:00:02;;;;;;;8.30;2.97;;;;;;;;;;4990016;28;20430;-66
2022/06/11 07:02:33;;;;;;;9.60;2.83;;;;;;;;;;4989899;28;20058;-66
2022/06/11 07:05:04;;;;;;;8.45;3.40;;;;;;;;;;4989871;28;20043;-66
2022/06/11 07:07:35;;;;;;;8.20;3.28;;;;;;;;;;4989552;28;20054;-65
2022/06/11 07:10:08;;;;;;;8.25;3.00;;;;;;;;;;4957831;28;20562;-66
2022/06/11 07:12:39;;;;;;;10.05;3.80;;;;;;;;;;4941787;29;20572;-66
2022/06/11 07:15:09;;;;;;;10.48;3.05;;;;;;;;;;4935633;29;20056;-66
2022/06/11 07:17:58;;;;;;;11.52;3.55;;;;;;;;;;4951341;29;20115;-66
2022/06/11 07:20:33;;;;;;;7.40;2.80;;;;;;;;;;4951252;29;20058;-66
2022/06/11 07:23:11;;;;;;;8.20;2.95;;;;;;;;;;4951058;29;20055;-65
2022/06/11 07:25:43;;;;;;;8.77;2.55;;;;;;;;;;4931906;29;20048;-66
2022/06/11 07:28:19;;;;;;;9.52;3.00;;;;;;;;;;4931155;29;20055;-65
2022/06/11 07:30:50;;;;;;;7.78;3.35;;;;;;;;;;4951201;29;20062;-66
2022/06/11 07:33:24;;;;;;;8.50;2.97;;;;;;;;;;4951383;29;20062;-66
2022/06/11 07:35:55;;;;;;;10.55;3.78;;;;;;;;;;4950925;29;20063;-66
2022/06/11 07:38:30;;;;;;;10.80;3.10;;;;;;;;;;4951160;29;20059;-66
2022/06/11 07:41:00;;;;;;;9.00;3.28;;;;;;;;;;4951076;29;20051;-65
2022/06/11 07:43:31;;;;;;;10.07;3.28;;;;;;;;;;4967265;28;20062;-66
2022/06/11 07:46:03;;;;;;;7.70;3.20;;;;;;;;;;4950981;29;20054;-66
2022/06/11 07:48:33;;;;;;;9.43;3.83;;;;;;;;;;4931715;29;20068;-66
2022/06/11 07:51:04;;;;;;;9.43;3.17;;;;;;;;;;4963646;28;20063;-66
2022/06/11 07:53:35;;;;;;;7.25;3.05;;;;;;;;;;4950951;29;20043;-66
2022/06/11 07:56:05;;;;;;;9.63;2.83;;;;;;;;;;4910506;28;20059;-65
2022/06/11 07:58:36;;;;;;;6.38;2.42;;;;;;;;;;4970145;28;20077;-65
2022/06/11 08:01:06;;;;;;;10.18;3.40;;;;;;;;;;4891701;28;20519;-66
2022/06/11 08:03:38;;;;;;;7.30;3.38;;;;;;;;;;4970216;28;20062;-66
2022/06/11 08:06:09;;;;;;;10.02;3.67;;;;;;;;;;4934782;29;20415;-65
2022/06/11 08:08:41;;;;;;;6.20;2.47;;;;;;;;;;4950829;29;20062;-67
2022/06/11 08:11:11;;;;;;;10.98;3.13;;;;;;;;;;4918798;29;20055;-66
2022/06/11 08:13:41;;;;;;;9.63;3.38;;;;;;;;;;4918869;29;20499;-66
2022/06/11 08:16:12;;;;;;;12.02;4.00;;;;;;;;;;4950755;29;20063;-66
2022/06/11 08:18:44;;;;;;;11.88;3.42;;;;;;;;;;4950582;28;20051;-66
2022/06/11 10:15:49;;;;;;;8.75;2.78;;;;;;;;;;5059206;27;2491093;-70
2022/06/11 10:18:36;;;;;;;7.13;2.97;;;;;;;;;;5082069;28;20375;-68
2022/06/11 10:21:16;;;;;;;9.95;3.20;;;;;;;;;;5016691;28;20434;-68
2022/06/11 10:24:03;;;;;;;11.07;3.35;;;;;;;;;;5066069;28;20053;-68
2022/06/11 10:26:45;;;;;;;7.63;3.50;;;;;;;;;;5067131;28;20049;-67
2022/06/11 10:29:29;;;;;;;12.48;5.10;;;;;;;;;;5049160;28;20075;-67
2022/06/11 10:32:05;;;;;;;9.15;3.45;;;;;;;;;;5073629;28;20057;-67
2022/06/11 10:34:57;;;;;;;11.48;3.58;;;;;;;;;;5033409;28;20060;-67
2022/06/11 10:37:30;;;;;;;;;;;;;;;;;;5083670;28;20057;-67
2022/06/11 10:40:35;;;;;;;7.80;3.25;;;;;;;;;;5050754;28;20760;-67
2022/06/11 10:43:37;;;;;;;9.95;3.08;;;;;;;;;;5006743;28;20405;-67
2022/06/11 10:46:14;;;;;;;10.52;3.42;;;;;;;;;;4968109;28;20529;-67
2022/06/11 10:48:44;;;;;;;6.88;3.33;;;;;;;;;;4920269;28;20059;-67
2022/06/11 10:51:37;;;;;;;12.85;3.47;;;;;;;;;;4968019;28;20088;-67
2022/06/11 10:54:20;;;;;;;8.68;2.97;;;;;;;;;;4967865;28;20442;-67
2022/06/11 10:57:12;;;;;;;9.15;4.10;;;;;;;;;;4936201;28;20061;-67
2022/06/11 10:59:51;;;;;;;9.43;4.05;;;;;;;;;;4936775;28;20050;-67
2022/06/11 11:02:28;;;;;;;7.47;4.15;;;;;;;;;;4939000;28;20125;-67
2022/06/11 11:05:13;;;;;;;9.00;4.60;;;;;;;;;;4970870;28;20081;-67
2022/06/11 11:08:02;;;;;;;8.75;4.30;;;;;;;;;;4986988;28;20051;-67
2022/06/11 11:10:35;;;;;;;8.52;3.50;;;;;;;;;;4955565;28;20449;-67
2022/06/11 11:13:26;;;;;;;;;;;;;;;;;;4987514;28;20051;-67
2022/06/11 11:16:01;;;;;;;10.13;3.72;;;;;;;;;;4916317;29;19929;-67
2022/06/11 11:18:41;;;;;;;12.10;4.55;;;;;;;;;;4933423;29;20052;-67
2022/06/11 11:21:34;;;;;;;11.63;4.68;;;;;;;;;;4900913;29;20055;-67
2022/06/11 11:24:21;;;;;;;14.95;3.75;;;;;;;;;;4950666;28;20065;-67
2022/06/11 11:27:06;;;;;;;11.77;5.60;;;;;;;;;;4954922;28;20050;-67
2022/06/11 11:29:41;;;;;;;29.45;7.55;;;;;;;;;;4922673;29;20058;-67
2022/06/11 11:32:38;;;;;;;35.33;13.18;;;;;;;;;;4922603;29;20062;-67
2022/06/11 11:35:26;;;;;;;26.27;9.00;;;;;;;;;;4938603;29;20066;-66
2022/06/11 11:38:11;;;;;;;22.67;8.65;;;;;;;;;;4954213;29;20473;-67
2022/06/11 11:41:02;;;;;;;33.10;10.60;;;;;;;;;;4950566;29;20059;-67
2022/06/11 11:43:42;;;;;;;30.08;9.15;;;;;;;;;;4907712;29;20053;-67
2022/06/11 11:46:21;;;;;;;27.60;11.50;;;;;;;;;;4866476;29;20063;-67
2022/06/11 11:49:01;;;;;;;;;;;;;;;;;;4904660;29;20060;-67
2022/06/11 11:51:32;;;;;;;27.80;8.15;;;;;;;;;;4896907;29;19948;-67
2022/06/11 11:54:14;;;;;;;18.27;7.68;;;;;;;;;;4961769;28;20066;-67
2022/06/11 11:57:05;;;;;;;27.67;10.55;;;;;;;;;;4940882;28;20058;-68
2022/06/11 11:59:56;;;;;;;21.88;6.63;;;;;;;;;;5004853;28;20477;-67
2022/06/11 12:02:33;;;;;;;45.22;15.55;;;;;;;;;;4973179;28;20059;-68
2022/06/11 12:05:19;;;;;;;41.30;12.00;;;;;;;;;;4921890;28;20558;-67
2022/06/11 12:07:51;;;;;;;23.23;7.97;;;;;;;;;;4995264;28;20521;-67
2022/06/11 12:10:26;;;;;;;35.95;16.02;;;;;;;;;;4986753;28;20054;-68
2022/06/11 12:12:58;;;;;;;27.95;11.05;;;;;;;;;;4989130;28;20088;-67
2022/06/11 12:15:32;;;;;;;30.25;12.68;;;;;;;;;;4983612;28;20051;-67
2022/06/11 12:18:13;;;;;;;11.00;5.50;;;;;;;;;;4935438;28;20050;-67
2022/06/11 12:20:52;;;;;;;13.52;4.65;;;;;;;;;;5020335;28;20421;-68
2022/06/11 12:23:29;;;;;;;;;;;;;;;;;;5016709;28;20065;-68
2022/06/11 12:26:13;;;;;;;8.85;4.35;;;;;;;;;;5031598;28;19921;-67
2022/06/11 12:29:11;;;;;;;6.68;4.03;;;;;;;;;;4982985;28;20054;-67
2022/06/11 12:31:42;;;;;;;6.93;3.13;;;;;;;;;;4972342;28;20071;-67
2022/06/11 12:34:16;;;;;;;8.60;4.18;;;;;;;;;;4972581;28;20054;-67
2022/06/11 12:36:56;;;;;;;26.55;12.68;;;;;;;;;;4971927;28;20055;-67
2022/06/11 12:39:39;;;;;;;8.07;3.28;;;;;;;;;;4971880;28;20062;-66
2022/06/11 12:42:40;;;;;;;25.45;11.10;;;;;;;;;;4972254;28;20070;-67
2022/06/11 12:45:38;;;;;;;10.05;4.15;;;;;;;;;;4964527;28;20446;-67
2022/06/11 12:48:47;;;;;;;6.38;3.47;;;;;;;;;;4952782;29;20066;-68
2022/06/11 12:51:28;;;;;;;6.47;2.55;;;;;;;;;;4953266;29;20458;-67
2022/06/11 12:54:10;;;;;;;5.47;1.23;;;;;;;;;;4917603;29;20558;-67
2022/06/11 12:56:59;;;;;;;6.15;3.20;;;;;;;;;;4985748;28;20066;-68
2022/06/11 12:59:59;;;;;;;10.30;2.25;;;;;;;;;;4991029;28;20065;-68
2022/06/11 13:02:59;;;;;;;4.93;2.20;;;;;;;;;;4975222;28;20065;-68
2022/06/11 13:05:39;;;;;;;7.95;2.28;;;;;;;;;;4904573;29;20055;-69
2022/06/11 13:08:27;;;;;;;11.13;2.72;;;;;;;;;;4918152;29;20535;-68
2022/06/11 13:11:38;;;;;;;9.02;3.85;;;;;;;;;;4914603;29;20063;-69
2022/06/11 13:14:23;;;;;;;4.53;1.95;;;;;;;;;;4914307;29;20064;-69
2022/06/11 13:17:12;;;;;;;7.38;3.30;;;;;;;;;;4913676;29;20103;-68
2022/06/11 13:19:59;;;;;;;6.88;2.25;;;;;;;;;;4898440;29;20416;-69
2022/06/11 13:22:41;;;;;;;6.55;3.45;;;;;;;;;;4921060;29;20058;-67
2022/06/11 13:25:33;;;;;;;4.38;1.95;;;;;;;;;;4933376;29;20064;-68
2022/06/11 13:28:36;;;;;;;10.05;3.63;;;;;;;;;;4932444;29;20051;-68
2022/06/11 13:31:32;;;;;;;4.45;1.85;;;;;;;;;;4932924;29;20415;-68
2022/06/11 13:34:24;;;;;;;5.05;2.80;;;;;;;;;;4885685;29;20074;-68
2022/06/11 13:37:24;;;;;;;5.90;3.28;;;;;;;;;;4932777;29;20055;-68
2022/06/11 13:40:21;;;;;;;4.70;2.38;;;;;;;;;;4895001;29;20064;-67
2022/06/11 13:43:06;;;;;;;2.60;1.33;;;;;;;;;;4835802;29;20064;-69
2022/06/11 13:45:49;;;;;;;6.00;2.38;;;;;;;;;;4876205;29;20052;-67
2022/06/11 13:48:38;;;;;;;4.25;1.77;;;;;;;;;;4876269;29;20101;-67
2022/06/11 13:51:29;;;;;;;3.85;2.08;;;;;;;;;;4897338;29;20067;-68
2022/06/11 13:57:40;;;;;;;3.58;0.80;;;;;;;;;;4882336;29;20409;-68
2022/06/11 14:00:16;;;;;;;4.35;1.63;;;;;;;;;;4894806;29;20053;-66
2022/06/11 14:03:14;;;;;;;4.30;1.90;;;;;;;;;;4894892;29;20057;-67
2022/06/11 14:05:46;;;;;;;;;;;;;;;;;;4895503;29;20052;-67
2022/06/11 14:08:20;;;;;;;2.80;1.40;;;;;;;;;;4913762;29;19923;-67
2022/06/11 14:10:53;;;;;;;3.95;1.35;;;;;;;;;;4932119;29;20388;-67
2022/06/11 14:13:44;;;;;;;3.15;0.98;;;;;;;;;;4856187;29;20438;-67
2022/06/11 14:16:32;;;;;;;3.72;1.85;;;;;;;;;;4930679;28;20051;-68
2022/06/11 14:19:18;;;;;;;3.67;1.58;;;;;;;;;;4970658;28;20518;-66
2022/06/11 14:21:54;;;;;;;3.17;1.23;;;;;;;;;;4922780;28;20458;-67
2022/06/11 14:24:42;;;;;;;4.90;1.98;;;;;;;;;;4970893;28;20162;-66
2022/06/11 14:27:33;;;;;;;3.13;1.45;;;;;;;;;;4958170;28;20062;-68
2022/06/11 14:30:21;;;;;;;9.68;5.15;;;;;;;;;;4928023;29;20052;-69
2022/06/11 14:33:22;;;;;;;3.65;1.67;;;;;;;;;;4931633;29;20063;-67
2022/06/11 14:35:57;;;;;;;3.40;1.35;;;;;;;;;;4931538;29;20402;-67
2022/06/11 14:38:31;;;;;;;2.15;1.13;;;;;;;;;;4932006;29;20068;-69
2022/06/11 14:41:10;;;;;;;3.92;1.70;;;;;;;;;;4931878;29;20060;-67
2022/06/11 14:44:01;;;;;;;2.72;1.50;;;;;;;;;;4932029;29;20063;-67
2022/06/11 14:46:40;;;;;;;2.80;1.52;;;;;;;;;;4931781;29;20048;-67
2022/06/11 14:49:13;;;;;;;;;;;;;;;;;;4947178;29;20547;-66
2022/06/11 14:52:15;;;;;;;2.53;1.67;;;;;;;;;;4942182;29;19923;-66
2022/06/11 14:54:56;;;;;;;3.83;1.40;;;;;;;;;;4931756;29;20499;-66
2022/06/11 14:57:44;;;;;;;5.75;1.58;;;;;;;;;;4936586;28;20430;-66
2022/06/11 15:00:37;;;;;;;3.33;1.65;;;;;;;;;;4938210;28;20058;-66
2022/06/11 15:03:10;;;;;;;4.28;2.03;;;;;;;;;;4936802;29;20055;-66
2022/06/11 15:06:03;;;;;;;2.97;1.60;;;;;;;;;;4945694;28;20059;-67
2022/06/11 15:08:49;;;;;;;4.43;1.88;;;;;;;;;;4964699;28;20062;-66
2022/06/11 15:11:34;;;;;;;3.45;1.75;;;;;;;;;;4954349;28;20051;-67
2022/06/11 15:14:23;;;;;;;3.92;1.75;;;;;;;;;;5001423;28;20057;-66
2022/06/11 15:17:31;;;;;;;4.45;1.88;;;;;;;;;;5010291;28;20049;-67
2022/06/11 15:20:23;;;;;;;3.70;1.45;;;;;;;;;;5012224;28;20518;-67
2022/06/11 15:22:54;;;;;;;2.95;1.42;;;;;;;;;;5012674;28;20062;-70
2022/06/11 15:25:27;;;;;;;4.47;1.48;;;;;;;;;;5012637;28;20046;-67
2022/06/11 15:28:02;;;;;;;2.60;1.30;;;;;;;;;;4973154;28;20054;-68
2022/06/11 15:30:34;;;;;;;3.55;1.40;;;;;;;;;;4953040;28;20039;-67
2022/06/11 15:33:15;;;;;;;3.72;1.73;;;;;;;;;;4953519;29;20058;-68
2022/06/11 15:35:51;;;;;;;2.95;1.08;;;;;;;;;;4896576;29;20052;-68
2022/06/11 15:38:25;;;;;;;8.13;1.98;;;;;;;;;;4913168;29;20048;-68
2022/06/11 15:40:59;;;;;;;2.30;1.17;;;;;;;;;;4886160;28;20059;-68
2022/06/11 15:43:37;;;;;;;2.97;1.33;;;;;;;;;;4931802;29;20058;-68
2022/06/11 15:46:31;;;;;;;4.75;2.35;;;;;;;;;;4934710;29;20044;-68
2022/06/11 15:49:22;;;;;;;3.53;1.77;;;;;;;;;;4931472;29;20051;-68
2022/06/11 15:52:14;;;;;;;4.60;1.30;;;;;;;;;;4949166;28;20491;-67
2022/06/11 15:55:12;;;;;;;;;;;;;;;;;;4934617;29;20604;-68
2022/06/11 15:57:49;;;;;;;1.95;1.20;;;;;;;;;;4933821;29;19923;-68
2022/06/11 16:00:39;;;;;;;4.32;1.30;;;;;;;;;;4992036;28;20046;-67
2022/06/11 16:03:15;;;;;;;2.28;0.95;;;;;;;;;;4943683;28;20057;-68
2022/06/11 16:06:03;;;;;;;1.75;1.02;;;;;;;;;;4991561;28;20520;-68
2022/06/11 16:08:39;;;;;;;1.45;0.90;;;;;;;;;;4950744;28;20053;-66
2022/06/11 16:11:35;;;;;;;2.10;1.23;;;;;;;;;;4996862;28;20062;-68
2022/06/11 16:14:17;;;;;;;2.92;1.50;;;;;;;;;;4975372;28;20124;-67
2022/06/11 16:16:54;;;;;;;2.55;1.13;;;;;;;;;;4965374;28;20055;-68
2022/06/11 16:19:27;;;;;;;3.72;1.75;;;;;;;;;;4980658;28;20053;-68
2022/06/11 16:22:06;;;;;;;2.72;1.08;;;;;;;;;;5000401;28;20041;-67
2022/06/11 16:24:40;;;;;;;2.92;1.23;;;;;;;;;;4991830;28;20054;-68
2022/06/11 16:27:19;;;;;;;6.53;2.30;;;;;;;;;;5018737;28;20055;-67
2022/06/11 16:29:58;;;;;;;1.20;1.02;;;;;;;;;;5031051;28;20053;-67
2022/06/11 16:32:30;;;;;;;3.70;1.50;;;;;;;;;;5031023;28;20156;-67
2022/06/11 16:35:01;;;;;;;2.17;1.23;;;;;;;;;;5031155;28;20532;-67
2022/06/11 16:37:38;;;;;;;1.15;0.90;;;;;;;;;;4991032;28;20050;-67
2022/06/11 16:40:26;;;;;;;4.07;1.33;;;;;;;;;;4959212;28;20525;-67
2022/06/11 16:42:59;;;;;;;1.40;0.90;;;;;;;;;;4991692;28;20058;-67
2022/06/11 16:45:37;;;;;;;3.40;1.77;;;;;;;;;;4944282;28;20058;-67
2022/06/11 16:48:27;;;;;;;3.33;1.10;;;;;;;;;;4987400;28;20059;-67
2022/06/11 16:56:46;;;;;;;1.45;0.82;;;;;;;;;;4988740;28;20060;-68
2022/06/11 16:59:38;;;;;;;5.45;0.90;;;;;;;;;;5030748;28;20060;-68
2022/06/11 17:05:22;;;;;;;15.07;5.68;;;;;;;;;;5030689;28;20064;-68
2022/06/11 17:08:00;;;;;;;3.25;0.70;;;;;;;;;;5013959;28;20449;-67
2022/06/11 17:10:44;;;;;;;3.92;1.90;;;;;;;;;;5030589;28;20048;-67
2022/06/11 17:13:31;;;;;;;2.63;1.00;;;;;;;;;;5014269;28;20056;-67
2022/06/11 17:16:04;;;;;;;15.63;6.20;;;;;;;;;;5014524;28;20053;-68
2022/06/11 17:18:38;;;;;;;5.15;1.42;;;;;;;;;;5017821;28;20508;-67
2022/06/11 17:21:26;;;;;;;1.35;0.68;;;;;;;;;;5052389;28;20056;-67
2022/06/11 17:24:19;;;;;;;2.78;0.90;;;;;;;;;;5052298;28;20373;-67
2022/06/11 17:26:56;;;;;;;1.95;1.20;;;;;;;;;;5049943;28;20052;-67
2022/06/11 17:29:26;;;;;;;48.58;14.50;;;;;;;;;;5050051;28;20053;-67
2022/06/11 17:31:56;;;;;;;23.58;7.50;;;;;;;;;;5028878;28;20491;-67
2022/06/11 17:34:27;;;;;;;30.98;9.60;;;;;;;;;;5069918;28;20051;-67
2022/06/11 17:37:01;;;;;;;194.77;69.88;;;;;;;;;;5069877;28;20052;-67
2022/06/11 17:39:36;;;;;;;12.13;3.17;;;;;;;;;;5063866;28;20172;-67
2022/06/11 17:42:10;;;;;;;7.57;3.60;;;;;;;;;;5049917;28;20049;-67
2022/06/11 17:44:44;;;;;;;8.93;5.35;;;;;;;;;;5049914;28;20499;-67
2022/06/11 17:47:15;;;;;;;5.38;2.05;;;;;;;;;;5016708;28;20053;-66
2022/06/11 17:49:48;;;;;;;2.70;1.00;;;;;;;;;;5049832;28;20045;-67
2022/06/11 17:52:36;;;;;;;3.08;1.60;;;;;;;;;;5049657;28;20083;-68
2022/06/11 17:58:11;;;;;;;6.30;2.05;;;;;;;;;;5387675;23;20421;-69
2022/06/11 18:00:43;;;;;;;1.55;0.50;;;;;;;;;;4878211;29;20370;-67